createdAt,value
2019-02-20T00:02:24.987Z,3.60
2019-02-20T00:04:53.207Z,3.08
2019-02-20T00:07:21.367Z,2.75
2019-02-20T00:09:49.532Z,3.27
2019-02-20T00:12:18.112Z,3.52
2019-02-20T00:14:46.294Z,3.85
2019-02-20T00:17:14.489Z,3.77
2019-02-20T00:19:42.668Z,3.27
2019-02-20T00:22:10.875Z,3.15
2019-02-20T00:24:39.137Z,2.85
2019-02-20T00:27:07.338Z,3.42
2019-02-20T00:29:35.699Z,3.15
2019-02-20T00:32:04.014Z,3.30
2019-02-20T00:34:32.139Z,3.05
2019-02-20T00:37:00.387Z,3.17
2019-02-20T00:39:28.621Z,3.52
2019-02-20T00:41:56.805Z,3.08
2019-02-20T00:44:43.967Z,2.75
2019-02-20T00:47:31.269Z,3.50
2019-02-20T00:49:59.623Z,3.22
2019-02-20T00:52:52.257Z,3.92
2019-02-20T00:55:20.423Z,2.83
2019-02-20T00:57:48.590Z,3.10
2019-02-20T01:00:16.883Z,3.40
2019-02-20T01:02:45.152Z,2.90
2019-02-20T01:05:13.365Z,2.60
2019-02-20T01:07:41.540Z,2.85
2019-02-20T01:10:09.776Z,2.27
2019-02-20T01:12:37.990Z,2.40
2019-02-20T01:15:06.760Z,2.85
2019-02-20T01:17:35.038Z,2.47
2019-02-20T01:20:03.213Z,3.42
2019-02-20T01:22:31.410Z,3.15
2019-02-20T01:24:59.589Z,3.00
2019-02-20T01:27:28.182Z,2.95
2019-02-20T01:29:56.349Z,2.40
2019-02-20T01:32:24.539Z,3.30
2019-02-20T01:34:52.701Z,2.92
2019-02-20T01:37:20.850Z,2.90
2019-02-20T01:39:49.620Z,2.75
2019-02-20T01:42:17.833Z,2.95
2019-02-20T01:44:46.021Z,2.45
2019-02-20T01:47:14.175Z,2.25
2019-02-20T01:49:42.373Z,2.05
2019-02-20T01:52:10.643Z,3.37
2019-02-20T01:54:38.828Z,2.90
2019-02-20T01:57:07.131Z,2.47
2019-02-20T01:59:35.219Z,2.83
2019-02-20T02:02:03.490Z,2.52
2019-02-20T02:04:31.719Z,2.72
2019-02-20T02:06:59.897Z,2.30
2019-02-20T02:09:28.115Z,2.90
2019-02-20T02:11:56.310Z,3.08
2019-02-20T02:14:24.705Z,3.02
2019-02-20T02:16:52.916Z,2.80
2019-02-20T02:19:21.336Z,2.10
2019-02-20T02:21:49.518Z,2.35
2019-02-20T02:24:17.744Z,3.10
2019-02-20T02:26:46.090Z,2.60
2019-02-20T02:29:14.432Z,2.22
2019-02-20T02:31:42.653Z,2.65
2019-02-20T02:34:10.907Z,2.90
2019-02-20T02:36:39.135Z,2.75
2019-02-20T02:39:07.333Z,2.83
2019-02-20T02:41:35.555Z,3.08
2019-02-20T02:44:03.815Z,3.42
2019-02-20T02:46:31.959Z,3.37
2019-02-20T02:49:00.122Z,3.83
2019-02-20T02:51:28.369Z,3.00
2019-02-20T02:53:56.922Z,3.55
2019-02-20T02:56:25.422Z,3.70
2019-02-20T02:58:53.588Z,3.90
2019-02-20T03:01:21.747Z,4.37
2019-02-20T03:03:49.927Z,4.53
2019-02-20T03:06:18.426Z,4.72
2019-02-20T03:08:46.682Z,4.97
2019-02-20T03:11:14.833Z,5.12
2019-02-20T03:13:43.530Z,5.10
2019-02-20T03:16:11.806Z,6.60
2019-02-20T03:18:40.068Z,5.25
2019-02-20T03:21:08.470Z,5.15
2019-02-20T03:23:40.158Z,5.90
2019-02-20T03:26:06.589Z,5.30
2019-02-20T03:28:34.978Z,6.00
2019-02-20T03:31:03.177Z,5.30
2019-02-20T03:33:31.745Z,5.15
2019-02-20T03:35:59.852Z,5.30
2019-02-20T03:38:30.539Z,6.08
2019-02-20T03:40:58.201Z,5.75
2019-02-20T03:43:26.468Z,6.37
2019-02-20T03:45:54.677Z,6.17
2019-02-20T03:48:22.915Z,6.65
2019-02-20T03:50:51.213Z,7.30
2019-02-20T03:53:19.393Z,7.50
2019-02-20T03:55:47.588Z,7.00
2019-02-20T03:58:15.737Z,7.15
2019-02-20T04:00:43.917Z,7.00
2019-02-20T04:03:12.216Z,7.03
2019-02-20T04:05:40.377Z,6.67
2019-02-20T04:08:08.521Z,6.62
2019-02-20T04:10:36.677Z,6.10
2019-02-20T04:13:04.757Z,7.12
2019-02-20T04:15:32.912Z,6.30
2019-02-20T04:18:01.761Z,7.87
2019-02-20T04:20:30.015Z,7.95
2019-02-20T04:22:58.179Z,6.65
2019-02-20T04:25:26.390Z,6.53
2019-02-20T04:27:54.628Z,6.75
2019-02-20T04:30:22.814Z,6.08
2019-02-20T04:32:51.169Z,7.53
2019-02-20T04:35:19.561Z,7.47
2019-02-20T04:37:47.712Z,7.50
2019-02-20T04:40:16.048Z,7.83
2019-02-20T04:42:44.354Z,7.50
2019-02-20T04:45:12.542Z,7.12
2019-02-20T04:47:40.791Z,6.97
2019-02-20T04:50:09.617Z,6.20
2019-02-20T04:52:37.793Z,6.35
2019-02-20T04:55:06.501Z,6.37
2019-02-20T04:57:34.674Z,5.85
2019-02-20T05:00:02.910Z,6.20
2019-02-20T05:02:31.198Z,7.05
2019-02-20T05:04:59.438Z,7.17
2019-02-20T05:07:27.718Z,6.75
2019-02-20T05:09:55.877Z,7.55
2019-02-20T05:12:24.180Z,7.12
2019-02-20T05:14:52.373Z,6.75
2019-02-20T05:17:20.546Z,7.35
2019-02-20T05:19:48.738Z,7.15
2019-02-20T05:22:16.889Z,7.47
2019-02-20T05:24:45.178Z,7.58
2019-02-20T05:27:13.403Z,7.35
2019-02-20T05:29:41.662Z,7.70
2019-02-20T05:32:09.911Z,7.67
2019-02-20T05:34:38.170Z,6.95
2019-02-20T05:37:06.486Z,7.17
2019-02-20T05:39:35.124Z,6.80
2019-02-20T05:42:03.372Z,7.12
2019-02-20T05:44:31.578Z,6.50
2019-02-20T05:47:01.330Z,8.10
2019-02-20T05:49:29.504Z,7.30
2019-02-20T05:51:57.820Z,7.03
2019-02-20T05:54:34.165Z,6.80
2019-02-20T05:56:56.040Z,7.55
2019-02-20T05:59:24.349Z,6.33
2019-02-20T06:01:52.630Z,6.33
2019-02-20T06:04:20.840Z,6.83
2019-02-20T06:06:49.064Z,7.08
2019-02-20T06:09:17.258Z,7.50
2019-02-20T06:11:46.127Z,7.03
2019-02-20T06:14:14.315Z,6.67
2019-02-20T06:16:42.795Z,5.78
2019-02-20T06:19:11.093Z,6.25
2019-02-20T06:21:39.306Z,5.67
2019-02-20T06:24:07.470Z,6.35
2019-02-20T06:26:35.651Z,7.28
2019-02-20T06:29:03.822Z,6.05
2019-02-20T06:31:32.059Z,6.05
2019-02-20T06:34:00.244Z,7.12
2019-02-20T06:36:28.418Z,6.53
2019-02-20T06:38:56.611Z,6.60
2019-02-20T06:41:24.745Z,6.33
2019-02-20T06:43:53.149Z,6.05
2019-02-20T06:46:21.292Z,5.97
2019-02-20T06:48:49.556Z,6.83
2019-02-20T06:51:17.722Z,5.12
2019-02-20T06:53:45.907Z,7.12
2019-02-20T06:56:14.084Z,7.22
2019-02-20T06:58:42.220Z,7.10
2019-02-20T07:01:10.401Z,5.97
2019-02-20T07:03:38.590Z,6.67
2019-02-20T07:06:56.906Z,5.65
2019-02-20T07:09:55.451Z,6.33
2019-02-20T07:12:50.576Z,7.80
2019-02-20T07:16:14.617Z,6.03
2019-02-20T07:19:17.040Z,7.45
2019-02-20T07:22:23.336Z,5.62
2019-02-20T07:25:08.590Z,6.12
2019-02-20T07:28:10.245Z,6.03
2019-02-20T07:30:38.445Z,6.78
2019-02-20T07:33:06.691Z,6.25
2019-02-20T07:35:34.958Z,4.67
2019-02-20T07:38:03.216Z,6.20
2019-02-20T07:40:31.453Z,6.75
2019-02-20T07:42:59.618Z,5.80
2019-02-20T07:45:27.816Z,6.08
2019-02-20T07:47:55.966Z,6.53
2019-02-20T07:50:24.126Z,5.92
2019-02-20T07:52:52.762Z,6.60
2019-02-20T07:55:20.935Z,6.87
2019-02-20T07:57:49.142Z,6.33
2019-02-20T08:00:17.406Z,6.20
2019-02-20T08:02:45.596Z,6.10
2019-02-20T08:05:13.884Z,6.17
2019-02-20T08:07:42.028Z,5.83
2019-02-20T08:10:11.475Z,6.08
2019-02-20T08:12:39.616Z,6.80
2019-02-20T08:15:09.052Z,6.12
2019-02-20T08:17:37.250Z,6.55
2019-02-20T08:20:05.686Z,12.63
2019-02-20T08:22:33.868Z,7.17
2019-02-20T08:25:02.169Z,6.05
2019-02-20T08:27:30.320Z,5.90
2019-02-20T08:29:58.633Z,5.58
2019-02-20T08:32:26.813Z,5.25
2019-02-20T08:34:54.973Z,6.47
2019-02-20T08:37:23.402Z,5.28
2019-02-20T08:39:51.595Z,6.50
2019-02-20T08:42:19.867Z,5.80
2019-02-20T08:44:48.037Z,5.80
2019-02-20T08:47:16.236Z,5.75
2019-02-20T08:49:44.378Z,5.28
2019-02-20T08:52:12.506Z,5.17
2019-02-20T08:54:40.789Z,5.33
2019-02-20T08:57:08.905Z,6.47
2019-02-20T08:59:37.084Z,5.83
2019-02-20T09:02:05.335Z,6.05
2019-02-20T09:04:33.534Z,5.05
2019-02-20T09:07:01.704Z,5.15
2019-02-20T09:09:29.906Z,4.67
2019-02-20T09:11:58.126Z,4.35
2019-02-20T09:14:26.328Z,5.10
2019-02-20T09:16:54.874Z,5.00
2019-02-20T09:19:23.088Z,5.00
2019-02-20T09:21:51.406Z,5.47
2019-02-20T09:24:19.551Z,4.83
2019-02-20T09:26:47.749Z,5.20
2019-02-20T09:29:15.907Z,5.08
2019-02-20T09:31:44.040Z,4.62
2019-02-20T09:34:12.319Z,4.15
2019-02-20T09:36:40.505Z,4.03
2019-02-20T09:39:37.755Z,4.15
2019-02-20T09:42:08.219Z,4.67
2019-02-20T09:44:47.443Z,3.92
2019-02-20T09:47:15.583Z,4.20
2019-02-20T09:49:43.703Z,4.37
2019-02-20T09:52:11.935Z,4.00
2019-02-20T09:54:40.130Z,3.47
2019-02-20T09:57:08.390Z,3.85
2019-02-20T09:59:36.596Z,3.90
2019-02-20T10:02:04.787Z,3.72
2019-02-20T10:04:32.976Z,3.92
2019-02-20T10:07:01.869Z,3.20
2019-02-20T10:09:30.229Z,3.40
2019-02-20T10:11:58.482Z,2.90
2019-02-20T10:14:26.641Z,3.67
2019-02-20T10:16:54.883Z,3.20
2019-02-20T10:19:23.359Z,2.75
2019-02-20T10:21:51.516Z,2.65
2019-02-20T10:24:19.713Z,3.02
2019-02-20T10:26:47.911Z,2.80
2019-02-20T10:29:16.239Z,2.67
2019-02-20T10:31:44.469Z,2.92
2019-02-20T10:34:12.674Z,2.00
2019-02-20T10:36:40.869Z,3.22
2019-02-20T10:39:09.092Z,2.72
2019-02-20T10:41:37.301Z,3.22
2019-02-20T10:44:05.504Z,1.82
2019-02-20T10:46:33.927Z,2.67
2019-02-20T10:49:02.109Z,2.47
2019-02-20T10:51:30.345Z,3.12
2019-02-20T10:53:58.609Z,2.35
2019-02-20T10:56:26.853Z,2.42
2019-02-20T10:58:58.840Z,2.52
2019-02-20T11:01:27.029Z,2.37
2019-02-20T11:03:55.204Z,2.58
2019-02-20T11:06:23.354Z,2.52
2019-02-20T11:08:51.523Z,2.55
2019-02-20T11:11:19.769Z,1.98
2019-02-20T11:13:48.046Z,2.00
2019-02-20T11:16:16.412Z,1.60
2019-02-20T11:18:44.652Z,2.10
2019-02-20T11:21:12.992Z,2.08
2019-02-20T11:23:41.182Z,2.35
2019-02-20T11:26:17.581Z,2.10
2019-02-20T11:28:39.292Z,2.05
2019-02-20T11:31:07.722Z,2.35
2019-02-20T11:33:35.890Z,2.00
2019-02-20T11:36:04.076Z,2.25
2019-02-20T11:38:32.249Z,2.00
2019-02-20T11:41:00.392Z,2.08
2019-02-20T11:43:28.598Z,1.62
2019-02-20T11:45:56.715Z,1.60
2019-02-20T11:48:24.808Z,2.00
2019-02-20T11:50:52.959Z,1.85
2019-02-20T11:53:21.229Z,2.15
2019-02-20T11:55:49.425Z,2.12
2019-02-20T11:58:17.598Z,2.02
2019-02-20T12:00:45.818Z,1.10
2019-02-20T12:03:13.991Z,0.90
2019-02-20T12:05:43.336Z,1.80
2019-02-20T12:08:11.681Z,1.30
2019-02-20T12:10:40.149Z,1.87
2019-02-20T12:13:08.475Z,1.52
2019-02-20T12:15:36.672Z,1.87
2019-02-20T12:18:04.895Z,1.85
2019-02-20T12:20:33.142Z,2.17
2019-02-20T12:23:01.459Z,2.00
2019-02-20T12:25:29.590Z,2.30
2019-02-20T12:27:57.912Z,0.98
2019-02-20T12:30:26.222Z,1.70
2019-02-20T12:32:54.411Z,1.92
2019-02-20T12:35:22.600Z,1.57
2019-02-20T12:37:50.750Z,1.72
2019-02-20T12:40:18.939Z,2.00
2019-02-20T12:42:47.238Z,1.65
2019-02-20T12:45:15.502Z,1.60
2019-02-20T12:47:44.022Z,1.67
2019-02-20T12:50:12.401Z,2.20
2019-02-20T12:52:40.685Z,1.92
2019-02-20T12:55:09.082Z,2.22
2019-02-20T12:57:37.311Z,1.80
2019-02-20T13:00:06.217Z,1.70
2019-02-20T13:02:36.044Z,2.15
2019-02-20T13:05:04.807Z,0.95
2019-02-20T13:07:33.278Z,0.72
2019-02-20T13:10:01.510Z,2.00
2019-02-20T13:12:30.552Z,1.90
2019-02-20T13:14:58.815Z,1.82
2019-02-20T13:17:27.067Z,1.60
2019-02-20T13:19:56.750Z,2.10
2019-02-20T13:22:24.997Z,1.57
2019-02-20T13:24:53.190Z,2.67
2019-02-20T13:27:23.022Z,2.05
2019-02-20T13:29:51.476Z,1.75
2019-02-20T13:32:19.775Z,2.37
2019-02-20T13:34:48.050Z,1.98
2019-02-20T13:37:16.407Z,2.45
2019-02-20T13:39:44.730Z,2.60
2019-02-20T13:42:12.883Z,2.67
2019-02-20T13:44:41.096Z,2.87
2019-02-20T13:47:09.314Z,2.40
2019-02-20T13:49:37.554Z,4.03
2019-02-20T13:52:05.777Z,4.03
2019-02-20T13:54:35.582Z,3.20
2019-02-20T13:57:28.393Z,3.55
2019-02-20T13:59:56.644Z,2.87
2019-02-20T14:02:24.885Z,3.60
2019-02-20T14:04:53.134Z,2.55
2019-02-20T14:07:21.560Z,3.47
2019-02-20T14:09:49.911Z,3.05
2019-02-20T14:12:18.499Z,3.40
2019-02-20T14:14:46.770Z,3.85
2019-02-20T14:17:15.046Z,3.72
2019-02-20T14:19:43.305Z,3.87
2019-02-20T14:22:11.623Z,4.83
2019-02-20T14:24:39.945Z,4.35
2019-02-20T14:27:10.741Z,4.22
2019-02-20T14:29:38.094Z,3.92
2019-02-20T14:32:06.320Z,4.08
2019-02-20T14:34:34.527Z,4.10
2019-02-20T14:37:03.096Z,4.00
2019-02-20T14:39:31.349Z,4.00
2019-02-20T14:42:00.987Z,5.05
2019-02-20T14:44:29.456Z,5.05
2019-02-20T14:46:57.646Z,3.83
2019-02-20T14:49:25.916Z,4.62
2019-02-20T14:51:54.143Z,4.30
2019-02-20T14:54:22.368Z,3.35
2019-02-20T14:56:50.580Z,3.77
2019-02-20T14:59:18.828Z,4.72
2019-02-20T15:01:47.010Z,4.33
2019-02-20T15:04:15.239Z,4.42
2019-02-20T15:06:43.482Z,4.10
2019-02-20T15:09:11.720Z,3.65
2019-02-20T15:11:39.963Z,4.47
2019-02-20T15:14:08.432Z,4.30
2019-02-20T15:16:36.668Z,4.30
2019-02-20T15:19:05.445Z,4.62
2019-02-20T15:21:33.640Z,4.85
2019-02-20T15:24:01.937Z,2.95
2019-02-20T15:26:30.289Z,3.47
2019-02-20T15:28:58.583Z,4.45
2019-02-20T15:31:33.805Z,4.97
2019-02-20T15:33:59.033Z,5.58
2019-02-20T15:36:27.483Z,5.58
2019-02-20T15:38:55.821Z,5.42
2019-02-20T15:41:24.145Z,5.50
2019-02-20T15:43:52.591Z,6.05
2019-02-20T15:46:21.030Z,6.08
2019-02-20T15:48:49.465Z,5.83
2019-02-20T15:51:17.707Z,4.55
2019-02-20T15:53:46.060Z,6.00
2019-02-20T15:56:14.418Z,5.30
2019-02-20T15:58:42.898Z,5.00
2019-02-20T16:01:11.643Z,5.55
2019-02-20T16:03:40.032Z,5.45
2019-02-20T16:06:08.243Z,5.28
2019-02-20T16:08:36.718Z,4.40
2019-02-20T16:11:14.544Z,5.75
2019-02-20T16:13:42.982Z,5.50
2019-02-20T16:16:11.380Z,4.37
2019-02-20T16:18:39.684Z,5.47
2019-02-20T16:21:08.175Z,6.05
2019-02-20T16:23:36.487Z,5.95
2019-02-20T16:26:04.754Z,4.42
2019-02-20T16:28:34.103Z,5.72
2019-02-20T16:31:02.652Z,6.50
2019-02-20T16:33:31.089Z,5.37
2019-02-20T16:35:59.583Z,5.22
2019-02-20T16:38:28.424Z,4.33
2019-02-20T16:40:57.262Z,5.80
2019-02-20T16:43:25.823Z,5.50
2019-02-20T16:45:54.515Z,4.75
2019-02-20T16:48:22.823Z,4.25
2019-02-20T16:50:52.148Z,5.22
2019-02-20T16:53:20.681Z,4.55
2019-02-20T16:55:49.371Z,5.78
2019-02-20T16:58:17.993Z,5.12
2019-02-20T17:00:47.376Z,4.00
2019-02-20T17:03:16.939Z,6.30
2019-02-20T17:05:45.420Z,5.30
2019-02-20T17:08:14.565Z,6.08
2019-02-20T17:10:43.494Z,6.03
2019-02-20T17:13:12.383Z,5.55
2019-02-20T17:15:41.387Z,5.20
2019-02-20T17:18:10.232Z,5.67
2019-02-20T17:20:39.512Z,7.78
2019-02-20T17:23:08.460Z,9.40
2019-02-20T17:25:36.975Z,10.60
2019-02-20T17:28:07.391Z,11.20
2019-02-20T17:30:36.102Z,8.10
2019-02-20T17:33:04.657Z,14.78
2019-02-20T17:35:33.656Z,9.30
2019-02-20T17:38:03.137Z,7.25
2019-02-20T17:40:31.862Z,7.22
2019-02-20T17:43:00.589Z,7.00
2019-02-20T17:45:29.654Z,7.15
2019-02-20T17:47:59.201Z,5.33
2019-02-20T17:50:27.790Z,7.73
2019-02-20T17:52:56.477Z,8.83
2019-02-20T17:55:24.919Z,8.33
2019-02-20T17:57:53.579Z,7.87
2019-02-20T18:00:25.738Z,6.00
2019-02-20T18:02:55.404Z,7.28
2019-02-20T18:05:24.125Z,7.33
2019-02-20T18:07:52.740Z,9.78
2019-02-20T18:10:21.723Z,7.72
2019-02-20T18:12:50.809Z,8.23
2019-02-20T18:15:19.398Z,6.85
2019-02-20T18:17:48.285Z,5.75
2019-02-20T18:20:17.223Z,7.50
2019-02-20T18:22:46.859Z,7.72
2019-02-20T18:25:16.368Z,7.10
2019-02-20T18:27:45.716Z,13.63
2019-02-20T18:30:15.400Z,8.73
2019-02-20T18:32:43.941Z,5.43
2019-02-20T18:35:13.422Z,6.33
2019-02-20T18:37:42.917Z,7.25
2019-02-20T18:40:13.984Z,8.63
2019-02-20T18:42:44.567Z,8.43
2019-02-20T18:47:42.742Z,6.83
2019-02-20T18:50:12.780Z,7.57
2019-02-20T18:52:43.239Z,7.87
2019-02-20T18:57:40.308Z,7.12
2019-02-20T19:00:12.239Z,7.20
2019-02-20T19:02:41.751Z,6.37
2019-02-20T19:05:11.091Z,7.20
2019-02-20T19:07:40.266Z,6.30
2019-02-20T19:10:13.427Z,8.78
2019-02-20T19:13:34.361Z,10.08
2019-02-20T19:16:46.918Z,7.30
2019-02-20T19:19:40.649Z,7.67
2019-02-20T19:22:57.355Z,9.73
2019-02-20T19:26:07.596Z,7.97
2019-02-20T19:29:04.374Z,9.48
2019-02-20T19:32:10.520Z,9.18
2019-02-20T19:35:16.840Z,7.55
2019-02-20T19:38:26.806Z,6.03
2019-02-20T19:41:25.117Z,11.08
2019-02-20T19:44:19.558Z,8.38
2019-02-20T19:47:16.290Z,9.83
2019-02-20T19:50:33.086Z,8.85
2019-02-20T19:53:27.972Z,7.70
2019-02-20T19:56:37.869Z,8.58
2019-02-20T19:59:40.832Z,11.60
2019-02-20T20:02:46.294Z,14.87
2019-02-20T20:05:37.181Z,10.93
2019-02-20T20:08:27.251Z,10.72
2019-02-20T20:11:27.001Z,10.58
2019-02-20T20:14:20.068Z,10.67
2019-02-20T20:17:08.267Z,10.65
2019-02-20T20:20:27.119Z,10.75
2019-02-20T20:23:32.840Z,11.93
2019-02-20T20:26:37.171Z,10.35
2019-02-20T20:29:42.596Z,9.43
2019-02-20T20:32:37.680Z,9.18
2019-02-20T20:35:41.141Z,7.10
2019-02-20T20:38:40.076Z,7.92
2019-02-20T20:41:45.640Z,7.22
2019-02-20T20:44:39.442Z,6.40
2019-02-20T20:47:40.802Z,8.65
2019-02-20T20:50:28.998Z,7.58
2019-02-20T20:53:18.315Z,7.45
2019-02-20T20:56:18.885Z,8.80
2019-02-20T20:59:49.250Z,12.10
2019-02-20T21:02:25.542Z,17.73
2019-02-20T21:05:50.495Z,13.10
2019-02-20T21:08:49.813Z,11.57
2019-02-20T21:12:17.235Z,11.30
2019-02-20T21:14:58.935Z,9.83
2019-02-20T21:17:59.779Z,9.65
2019-02-20T21:20:41.348Z,9.18
2019-02-20T21:23:45.660Z,7.45
2019-02-20T21:26:50.440Z,8.30
2019-02-20T21:29:40.046Z,9.10
2019-02-20T21:32:42.972Z,9.30
2019-02-20T21:35:23.890Z,8.00
2019-02-20T21:38:54.394Z,10.58
2019-02-20T21:42:02.249Z,11.45
2019-02-20T21:45:14.388Z,6.22
2019-02-20T21:48:10.764Z,8.85
2019-02-20T21:51:06.579Z,10.05
2019-02-20T21:53:59.376Z,10.23
2019-02-20T21:56:58.951Z,8.93
2019-02-20T22:00:03.709Z,10.35
2019-02-20T22:02:56.477Z,6.87
2019-02-20T22:05:41.813Z,10.08
2019-02-20T22:08:42.029Z,12.30
2019-02-20T22:11:20.976Z,12.23
2019-02-20T22:14:27.266Z,12.47
2019-02-20T22:17:27.178Z,7.42
2019-02-20T22:20:21.246Z,11.60
2019-02-20T22:23:27.192Z,10.55
2019-02-20T22:26:24.032Z,12.35
2019-02-20T22:28:59.830Z,12.95
2019-02-20T22:31:51.585Z,12.28
2019-02-20T22:34:58.070Z,12.50
2019-02-20T22:37:51.278Z,14.28
2019-02-20T22:40:51.571Z,15.08
2019-02-20T22:44:04.835Z,15.85
2019-02-20T22:46:57.797Z,11.93
2019-02-20T22:49:56.432Z,15.90
2019-02-20T22:52:51.153Z,9.05
2019-02-20T22:55:54.884Z,15.05
2019-02-20T22:58:36.173Z,13.08
2019-02-20T23:01:26.328Z,14.58
2019-02-20T23:04:22.532Z,15.75
2019-02-20T23:07:23.915Z,14.98
2019-02-20T23:10:27.569Z,10.43
2019-02-20T23:13:38.599Z,14.18
2019-02-20T23:16:06.975Z,13.53
2019-02-20T23:18:35.167Z,13.25
2019-02-20T23:21:03.376Z,9.20
2019-02-20T23:23:31.501Z,13.98
2019-02-20T23:25:59.909Z,12.03
2019-02-20T23:28:28.085Z,12.28
2019-02-20T23:30:56.315Z,13.88
2019-02-20T23:33:24.582Z,15.00
2019-02-20T23:35:52.781Z,14.80
2019-02-20T23:38:21.046Z,13.10
2019-02-20T23:40:49.254Z,13.55
2019-02-20T23:43:17.460Z,15.68
2019-02-20T23:45:45.739Z,13.40
2019-02-20T23:48:14.015Z,14.28
2019-02-20T23:50:42.245Z,13.85
2019-02-20T23:53:10.516Z,12.63
2019-02-20T23:55:38.836Z,15.15
2019-02-20T23:58:06.973Z,15.78
